createdAt,value
2022-12-25T00:01:46.237Z,4.05
2022-12-25T00:04:12.751Z,5.03
2022-12-25T00:06:39.207Z,4.95
2022-12-25T00:09:05.648Z,4.28
2022-12-25T00:11:32.045Z,3.60
2022-12-25T00:13:58.434Z,3.83
2022-12-25T00:16:26.634Z,3.22
2022-12-25T00:18:53.984Z,3.47
2022-12-25T00:21:21.534Z,3.55
2022-12-25T00:23:48.351Z,3.00
2022-12-25T00:26:17.062Z,3.35
2022-12-25T00:28:44.337Z,3.17
2022-12-25T00:31:16.758Z,2.83
2022-12-25T00:33:45.610Z,2.72
2022-12-25T00:36:13.559Z,2.83
2022-12-25T00:38:40.659Z,3.42
2022-12-25T00:41:09.626Z,3.50
2022-12-25T00:43:36.699Z,4.38
2022-12-25T00:46:05.457Z,3.80
2022-12-25T00:48:32.778Z,3.75
2022-12-25T00:51:02.396Z,4.40
2022-12-25T00:53:29.582Z,3.92
2022-12-25T00:55:59.063Z,3.80
2022-12-25T00:58:28.398Z,3.70
2022-12-25T01:00:55.043Z,3.10
2022-12-25T01:03:21.641Z,3.33
2022-12-25T01:06:02.985Z,3.40
2022-12-25T01:08:31.370Z,3.53
2022-12-25T01:11:08.299Z,3.00
2022-12-25T01:13:36.834Z,3.42
2022-12-25T01:16:07.616Z,2.75
2022-12-25T01:18:34.414Z,3.10
2022-12-25T01:21:12.879Z,2.90
2022-12-25T01:23:39.343Z,2.90
2022-12-25T01:26:09.685Z,3.08
2022-12-25T01:28:37.046Z,2.85
2022-12-25T01:31:04.139Z,3.38
2022-12-25T01:33:30.672Z,2.83
2022-12-25T01:35:58.524Z,2.75
2022-12-25T01:38:24.976Z,2.83
2022-12-25T01:40:51.419Z,3.35
2022-12-25T01:43:25.646Z,2.75
2022-12-25T01:45:55.272Z,3.23
2022-12-25T01:48:34.056Z,2.92
2022-12-25T01:51:29.908Z,2.90
2022-12-25T01:54:00.356Z,3.63
2022-12-25T01:56:28.927Z,3.45
2022-12-25T01:58:57.504Z,3.15
2022-12-25T02:01:24.213Z,3.65
2022-12-25T02:03:54.875Z,3.83
2022-12-25T02:06:21.819Z,3.55
2022-12-25T02:08:49.645Z,3.72
2022-12-25T02:11:35.992Z,3.67
2022-12-25T02:14:02.775Z,3.30
2022-12-25T02:16:35.537Z,3.05
2022-12-25T02:19:44.781Z,2.88
2022-12-25T02:22:38.948Z,3.17
2022-12-25T02:25:30.434Z,2.95
2022-12-25T02:28:10.018Z,3.10
2022-12-25T02:30:44.082Z,3.65
2022-12-25T02:33:38.815Z,4.70
2022-12-25T02:36:09.318Z,3.70
2022-12-25T02:39:04.629Z,3.50
2022-12-25T02:41:37.512Z,4.95
2022-12-25T02:44:29.516Z,3.38
2022-12-25T02:47:14.916Z,3.63
2022-12-25T02:50:02.331Z,3.72
2022-12-25T02:52:49.507Z,3.25
2022-12-25T02:55:39.656Z,3.15
2022-12-25T02:58:30.948Z,2.95
2022-12-25T03:01:25.983Z,2.60
2022-12-25T03:04:14.938Z,3.03
2022-12-25T03:06:56.761Z,3.00
2022-12-25T03:09:45.729Z,2.83
2022-12-25T03:12:33.713Z,2.60
2022-12-25T03:15:19.085Z,2.90
2022-12-25T03:17:45.508Z,3.53
2022-12-25T03:20:30.753Z,2.95
2022-12-25T03:23:16.008Z,2.28
2022-12-25T03:26:00.810Z,2.78
2022-12-25T03:28:27.324Z,2.80
2022-12-25T03:31:21.322Z,2.50
2022-12-25T03:34:12.615Z,2.55
2022-12-25T03:37:20.261Z,3.03
2022-12-25T03:39:53.793Z,2.70
2022-12-25T03:43:06.776Z,2.70
2022-12-25T03:46:00.019Z,2.55
2022-12-25T03:48:49.239Z,3.15
2022-12-25T03:51:39.403Z,2.65
2022-12-25T03:54:27.888Z,2.65
2022-12-25T03:57:14.818Z,2.85
2022-12-25T03:59:59.652Z,2.63
2022-12-25T04:02:44.520Z,3.88
2022-12-25T04:05:29.467Z,2.45
2022-12-25T04:08:14.697Z,2.88
2022-12-25T04:10:59.397Z,2.60
2022-12-25T04:13:45.341Z,2.22
2022-12-25T04:16:30.083Z,2.47
2022-12-25T04:19:14.866Z,2.50
2022-12-25T04:21:59.695Z,3.28
2022-12-25T04:24:44.452Z,2.38
2022-12-25T04:27:29.592Z,3.37
2022-12-25T04:30:14.389Z,2.75
2022-12-25T04:32:59.236Z,2.90
2022-12-25T04:35:44.013Z,2.78
2022-12-25T04:38:10.424Z,3.42
2022-12-25T04:40:36.782Z,2.65
2022-12-25T04:43:03.183Z,2.80
2022-12-25T04:45:29.685Z,3.15
2022-12-25T04:47:58.669Z,3.22
2022-12-25T04:50:25.141Z,2.65
2022-12-25T04:52:51.509Z,2.53
2022-12-25T04:55:17.920Z,2.85
2022-12-25T04:57:45.121Z,2.30
2022-12-25T05:00:11.903Z,2.65
2022-12-25T05:02:38.426Z,2.67
2022-12-25T05:05:05.241Z,2.20
2022-12-25T05:07:33.042Z,2.15
2022-12-25T05:09:59.514Z,2.60
2022-12-25T05:12:25.909Z,2.20
2022-12-25T05:14:52.291Z,2.33
2022-12-25T05:17:18.746Z,2.70
2022-12-25T05:19:45.100Z,2.55
2022-12-25T05:22:11.461Z,2.83
2022-12-25T05:24:37.898Z,2.47
2022-12-25T05:27:04.298Z,2.42
2022-12-25T05:29:30.678Z,2.33
2022-12-25T05:31:57.111Z,2.10
2022-12-25T05:34:23.584Z,2.45
2022-12-25T05:36:50.053Z,2.35
2022-12-25T05:39:16.485Z,2.17
2022-12-25T05:41:42.874Z,2.22
2022-12-25T05:44:09.326Z,2.03
2022-12-25T05:46:35.782Z,2.50
2022-12-25T05:49:02.188Z,2.83
2022-12-25T05:51:28.656Z,2.67
2022-12-25T05:53:55.056Z,2.20
2022-12-25T05:56:21.481Z,3.20
2022-12-25T05:58:48.157Z,3.13
2022-12-25T06:01:18.193Z,3.55
2022-12-25T06:03:44.828Z,3.85
2022-12-25T06:06:12.341Z,3.20
2022-12-25T06:08:38.889Z,3.30
2022-12-25T06:11:07.449Z,3.50
2022-12-25T06:13:35.048Z,3.47
2022-12-25T06:16:10.278Z,4.10
2022-12-25T06:18:41.909Z,4.00
2022-12-25T06:21:10.851Z,3.55
2022-12-25T06:23:38.116Z,3.85
2022-12-25T06:26:16.253Z,3.85
2022-12-25T06:28:42.987Z,4.63
2022-12-25T06:31:17.634Z,3.92
2022-12-25T06:33:44.558Z,4.35
2022-12-25T06:36:15.308Z,4.25
2022-12-25T06:38:42.208Z,4.88
2022-12-25T06:41:11.556Z,4.78
2022-12-25T06:43:38.260Z,5.03
2022-12-25T06:46:10.252Z,4.50
2022-12-25T06:48:38.045Z,4.57
2022-12-25T06:51:05.572Z,3.50
2022-12-25T06:53:39.920Z,4.72
2022-12-25T06:56:10.671Z,4.72
2022-12-25T06:58:37.091Z,4.15
2022-12-25T07:01:15.323Z,3.72
2022-12-25T07:03:43.923Z,3.78
2022-12-25T07:06:10.369Z,3.83
2022-12-25T07:08:37.025Z,4.13
2022-12-25T07:11:03.418Z,4.35
2022-12-25T07:13:29.986Z,4.40
2022-12-25T07:16:01.259Z,3.97
2022-12-25T07:18:28.010Z,4.55
2022-12-25T07:20:59.295Z,4.38
2022-12-25T07:23:28.742Z,4.60
2022-12-25T07:25:57.029Z,4.60
2022-12-25T07:28:23.427Z,4.25
2022-12-25T07:30:49.959Z,4.72
2022-12-25T07:33:16.778Z,4.43
2022-12-25T07:35:43.358Z,4.78
2022-12-25T07:38:09.961Z,4.30
2022-12-25T07:40:36.352Z,4.68
2022-12-25T07:43:02.785Z,5.00
2022-12-25T07:45:29.337Z,4.93
2022-12-25T07:47:56.925Z,4.72
2022-12-25T07:50:26.324Z,4.82
2022-12-25T07:52:52.710Z,4.70
2022-12-25T07:55:19.084Z,4.47
2022-12-25T07:57:45.464Z,4.65
2022-12-25T08:00:12.495Z,4.55
2022-12-25T08:02:39.831Z,4.75
2022-12-25T08:05:07.338Z,4.53
2022-12-25T08:07:35.493Z,5.72
2022-12-25T08:10:02.662Z,8.20
2022-12-25T08:12:29.219Z,6.30
2022-12-25T08:14:55.801Z,5.95
2022-12-25T08:17:22.189Z,7.22
2022-12-25T08:19:48.545Z,5.10
2022-12-25T08:22:15.287Z,4.45
2022-12-25T08:24:41.735Z,5.60
2022-12-25T08:27:08.120Z,4.80
2022-12-25T08:29:34.495Z,4.53
2022-12-25T08:32:00.885Z,4.15
2022-12-25T08:34:27.253Z,4.95
2022-12-25T08:36:53.651Z,4.53
2022-12-25T08:39:20.026Z,4.82
2022-12-25T08:41:46.437Z,4.95
2022-12-25T08:44:14.135Z,4.55
2022-12-25T08:46:40.704Z,4.95
2022-12-25T08:49:07.187Z,4.60
2022-12-25T08:51:34.230Z,4.88
2022-12-25T08:54:01.154Z,4.43
2022-12-25T08:56:28.000Z,4.55
2022-12-25T08:58:54.422Z,7.53
2022-12-25T09:01:21.884Z,4.88
2022-12-25T09:03:48.419Z,6.97
2022-12-25T09:06:16.275Z,5.90
2022-12-25T09:08:48.526Z,16.77
2022-12-25T09:11:17.682Z,8.75
2022-12-25T09:13:44.060Z,7.25
2022-12-25T09:16:17.405Z,6.00
2022-12-25T09:18:44.103Z,5.88
2022-12-25T09:21:12.507Z,8.10
2022-12-25T09:23:39.467Z,8.48
2022-12-25T09:26:08.608Z,8.70
2022-12-25T09:28:35.086Z,7.25
2022-12-25T09:31:01.635Z,6.20
2022-12-25T09:33:28.086Z,5.82
2022-12-25T09:36:00.974Z,6.80
2022-12-25T09:38:28.287Z,6.28
2022-12-25T09:41:29.962Z,6.80
2022-12-25T09:44:14.789Z,5.35
2022-12-25T09:46:47.229Z,6.50
2022-12-25T09:49:37.847Z,6.20
2022-12-25T09:52:18.274Z,5.75
2022-12-25T09:54:44.587Z,5.57
2022-12-25T09:57:12.708Z,5.25
2022-12-25T09:59:40.127Z,4.80
2022-12-25T10:02:30.960Z,4.75
2022-12-25T10:05:10.769Z,5.90
2022-12-25T10:07:43.473Z,6.00
2022-12-25T10:10:37.384Z,5.07
2022-12-25T10:13:25.270Z,7.38
2022-12-25T10:16:11.106Z,6.32
2022-12-25T10:18:58.916Z,5.05
2022-12-25T10:21:28.133Z,8.60
2022-12-25T10:24:05.480Z,8.77
2022-12-25T10:26:34.277Z,7.13
2022-12-25T10:29:13.525Z,7.82
2022-12-25T10:31:46.643Z,7.93
2022-12-25T10:34:14.424Z,14.10
2022-12-25T10:36:43.447Z,6.25
2022-12-25T10:39:18.872Z,7.88
2022-12-25T10:42:07.671Z,6.07
2022-12-25T10:44:34.761Z,6.53
2022-12-25T10:47:03.721Z,4.78
2022-12-25T10:49:37.235Z,7.88
2022-12-25T10:52:16.467Z,8.10
2022-12-25T10:54:43.597Z,5.43
2022-12-25T10:57:23.695Z,6.70
2022-12-25T11:00:28.450Z,5.72
2022-12-25T11:03:00.811Z,7.22
2022-12-25T11:05:31.925Z,8.63
2022-12-25T11:08:26.107Z,7.47
2022-12-25T11:11:22.755Z,7.82
2022-12-25T11:13:56.279Z,5.60
2022-12-25T11:16:35.250Z,5.50
2022-12-25T11:19:02.165Z,9.02
2022-12-25T11:22:06.244Z,9.13
2022-12-25T11:24:39.421Z,13.50
2022-12-25T11:29:52.685Z,6.55
2022-12-25T11:32:25.119Z,5.72
2022-12-25T11:34:53.293Z,9.20
2022-12-25T11:37:40.599Z,13.07
2022-12-25T11:40:13.621Z,20.60
2022-12-25T11:42:44.111Z,16.08
2022-12-25T11:45:31.340Z,20.38
2022-12-25T11:48:12.028Z,6.72
2022-12-25T11:50:50.296Z,5.50
2022-12-25T11:53:28.051Z,6.20
2022-12-25T11:56:02.937Z,5.72
2022-12-25T11:58:52.557Z,7.68
2022-12-25T12:01:42.543Z,14.77
2022-12-25T12:04:40.335Z,6.72
2022-12-25T12:07:30.541Z,6.75
2022-12-25T12:10:25.500Z,6.38
2022-12-25T12:13:27.725Z,6.78
2022-12-25T12:15:54.619Z,8.40
2022-12-25T12:18:26.891Z,10.32
2022-12-25T12:21:00.952Z,7.38
2022-12-25T12:23:30.107Z,5.88
2022-12-25T12:25:57.494Z,10.30
2022-12-25T12:28:32.185Z,8.90
2022-12-25T12:31:08.890Z,7.45
2022-12-25T12:33:41.182Z,4.40
2022-12-25T12:36:13.005Z,7.25
2022-12-25T12:38:41.135Z,5.65
2022-12-25T12:41:09.531Z,6.05
2022-12-25T12:43:42.773Z,7.28
2022-12-25T12:46:31.603Z,6.15
2022-12-25T12:49:32.357Z,4.75
2022-12-25T12:52:25.152Z,6.13
2022-12-25T12:55:16.876Z,5.25
2022-12-25T12:57:43.523Z,5.22
2022-12-25T13:00:19.728Z,4.82
2022-12-25T13:03:16.555Z,4.90
2022-12-25T13:05:48.084Z,4.88
2022-12-25T13:08:14.568Z,4.60
2022-12-25T13:11:13.508Z,4.78
2022-12-25T13:13:42.576Z,4.40
2022-12-25T13:16:39.031Z,4.65
2022-12-25T13:19:08.496Z,5.25
2022-12-25T13:21:35.680Z,4.63
2022-12-25T13:24:08.782Z,4.47
2022-12-25T13:26:35.578Z,4.38
2022-12-25T13:29:07.828Z,4.65
2022-12-25T13:31:37.801Z,4.38
2022-12-25T13:34:37.097Z,6.38
2022-12-25T13:37:09.796Z,9.00
2022-12-25T13:39:39.590Z,7.25
2022-12-25T13:42:09.438Z,7.95
2022-12-25T13:44:50.410Z,6.20
2022-12-25T13:47:31.559Z,9.70
2022-12-25T13:50:00.008Z,6.32
2022-12-25T13:52:37.743Z,5.78
2022-12-25T13:55:11.025Z,9.60
2022-12-25T13:57:41.394Z,12.40
2022-12-25T14:00:18.789Z,6.90
2022-12-25T14:02:45.886Z,5.25
2022-12-25T14:05:41.755Z,4.43
2022-12-25T14:08:24.171Z,6.55
2022-12-25T14:10:52.759Z,5.47
2022-12-25T14:13:23.295Z,5.07
2022-12-25T14:15:51.141Z,4.78
2022-12-25T14:18:20.066Z,5.07
2022-12-25T14:21:11.719Z,3.55
2022-12-25T14:23:43.671Z,4.10
2022-12-25T14:26:18.580Z,4.57
2022-12-25T14:29:17.483Z,4.32
2022-12-25T14:31:45.917Z,3.80
2022-12-25T14:34:18.538Z,3.72
2022-12-25T14:36:45.456Z,8.50
2022-12-25T14:39:32.688Z,12.55
2022-12-25T14:42:01.815Z,4.43
2022-12-25T14:44:34.594Z,6.47
2022-12-25T14:47:20.822Z,4.80
2022-12-25T14:49:48.088Z,4.80
2022-12-25T14:52:19.510Z,3.60
2022-12-25T14:54:49.717Z,3.83
2022-12-25T14:57:35.642Z,4.30
2022-12-25T15:00:21.031Z,3.92
2022-12-25T15:02:49.972Z,4.47
2022-12-25T15:05:31.837Z,6.40
2022-12-25T15:08:06.409Z,6.35
2022-12-25T15:13:20.448Z,4.55
2022-12-25T15:15:54.498Z,8.60
2022-12-25T15:18:23.709Z,8.77
2022-12-25T15:20:54.871Z,5.25
2022-12-25T15:23:21.897Z,3.80
2022-12-25T15:25:50.910Z,5.47
2022-12-25T15:28:17.506Z,6.72
2022-12-25T15:30:44.209Z,5.22
2022-12-25T15:33:14.932Z,4.30
2022-12-25T15:35:44.149Z,4.10
2022-12-25T15:38:12.362Z,4.35
2022-12-25T15:40:39.521Z,3.92
2022-12-25T15:43:11.191Z,4.20
2022-12-25T15:45:47.396Z,3.90
2022-12-25T15:48:13.919Z,4.10
2022-12-25T15:50:40.517Z,3.95
2022-12-25T15:53:07.027Z,7.20
2022-12-25T15:55:34.374Z,5.55
2022-12-25T15:58:03.340Z,5.55
2022-12-25T16:00:29.857Z,7.10
2022-12-25T16:02:57.010Z,6.18
2022-12-25T16:05:23.809Z,6.90
2022-12-25T16:07:50.395Z,5.97
2022-12-25T16:10:19.570Z,5.22
2022-12-25T16:12:46.094Z,5.15
2022-12-25T16:15:14.543Z,4.50
2022-12-25T16:17:41.129Z,5.13
2022-12-25T16:20:09.155Z,5.78
2022-12-25T16:22:39.975Z,4.85
2022-12-25T16:25:13.400Z,6.85
2022-12-25T16:27:39.992Z,10.48
2022-12-25T16:30:07.378Z,11.73
2022-12-25T16:32:34.101Z,8.15
2022-12-25T16:35:00.825Z,11.40
2022-12-25T16:37:30.258Z,5.47
2022-12-25T16:39:56.834Z,10.00
2022-12-25T16:42:23.450Z,6.63
2022-12-25T16:44:49.950Z,5.30
2022-12-25T16:47:16.450Z,4.43
2022-12-25T16:49:43.086Z,6.93
2022-12-25T16:52:09.689Z,5.18
2022-12-25T16:54:36.373Z,8.30
2022-12-25T16:57:03.045Z,7.03
2022-12-25T16:59:30.261Z,5.22
2022-12-25T17:01:56.909Z,5.63
2022-12-25T17:04:23.709Z,5.20
2022-12-25T17:06:50.160Z,4.75
2022-12-25T17:09:16.777Z,4.80
2022-12-25T17:11:43.266Z,4.40
2022-12-25T17:14:10.702Z,5.15
2022-12-25T17:16:38.473Z,4.80
2022-12-25T17:19:09.607Z,4.05
2022-12-25T17:21:38.312Z,4.90
2022-12-25T17:24:06.674Z,4.00
2022-12-25T17:26:33.339Z,4.28
2022-12-25T17:29:00.829Z,4.22
2022-12-25T17:31:27.893Z,4.22
2022-12-25T17:33:54.564Z,4.50
2022-12-25T17:36:22.863Z,3.95
2022-12-25T17:38:49.709Z,4.05
2022-12-25T17:41:17.963Z,4.68
2022-12-25T17:43:45.701Z,4.13
2022-12-25T17:46:21.463Z,4.20
2022-12-25T17:48:49.962Z,3.92
2022-12-25T17:51:21.265Z,4.13
2022-12-25T17:53:50.627Z,4.20
2022-12-25T17:56:18.484Z,3.97
2022-12-25T17:58:49.243Z,4.22
2022-12-25T18:01:16.675Z,5.55
2022-12-25T18:03:44.893Z,5.05
2022-12-25T18:06:14.817Z,4.65
2022-12-25T18:08:42.942Z,4.80
2022-12-25T18:11:15.275Z,4.53
2022-12-25T18:13:45.003Z,4.75
2022-12-25T18:16:13.103Z,7.40
2022-12-25T18:18:40.517Z,5.85
2022-12-25T18:21:07.733Z,4.25
2022-12-25T18:23:35.738Z,4.82
2022-12-25T18:26:04.307Z,4.40
2022-12-25T18:28:30.990Z,4.07
2022-12-25T18:30:57.700Z,4.63
2022-12-25T18:33:25.074Z,4.22
2022-12-25T18:36:00.418Z,4.95
2022-12-25T18:38:27.636Z,5.78
2022-12-25T18:40:55.889Z,5.50
2022-12-25T18:43:53.500Z,5.32
2022-12-25T18:46:10.240Z,4.88
2022-12-25T18:48:37.657Z,5.10
2022-12-25T18:51:07.934Z,4.47
2022-12-25T18:53:35.443Z,4.63
2022-12-25T18:56:10.716Z,7.32
2022-12-25T18:58:40.331Z,5.38
2022-12-25T19:01:20.066Z,4.32
2022-12-25T19:03:48.855Z,4.07
2022-12-25T19:06:20.045Z,4.60
2022-12-25T19:08:46.772Z,4.28
2022-12-25T19:11:13.770Z,4.03
2022-12-25T19:13:40.448Z,4.20
2022-12-25T19:16:07.127Z,4.50
2022-12-25T19:18:33.914Z,3.92
2022-12-25T19:21:05.280Z,9.77
2022-12-25T19:23:32.084Z,6.32
2022-12-25T19:25:58.566Z,4.80
2022-12-25T19:28:25.446Z,5.90
2022-12-25T19:30:55.624Z,4.00
2022-12-25T19:33:22.871Z,4.53
2022-12-25T19:35:49.586Z,4.60
2022-12-25T19:38:16.256Z,4.35
2022-12-25T19:41:00.224Z,4.05
2022-12-25T19:43:32.744Z,4.13
2022-12-25T19:46:00.203Z,4.20
2022-12-25T19:48:27.209Z,5.18
2022-12-25T19:50:54.562Z,4.78
2022-12-25T19:53:23.735Z,4.00
2022-12-25T19:55:53.867Z,4.78
2022-12-25T19:58:21.965Z,7.50
2022-12-25T20:01:05.932Z,4.22
2022-12-25T20:03:34.469Z,4.55
2022-12-25T20:06:02.666Z,4.28
2022-12-25T20:08:29.152Z,3.63
2022-12-25T20:10:55.773Z,6.65
2022-12-25T20:13:22.620Z,4.82
2022-12-25T20:15:49.247Z,5.05
2022-12-25T20:18:16.804Z,4.78
2022-12-25T20:20:44.441Z,6.90
2022-12-25T20:23:11.383Z,4.13
2022-12-25T20:25:43.766Z,3.92
2022-12-25T20:28:10.523Z,4.38
2022-12-25T20:30:40.618Z,3.97
2022-12-25T20:33:07.389Z,3.75
2022-12-25T20:35:33.937Z,4.30
2022-12-25T20:38:00.572Z,4.28
2022-12-25T20:40:27.347Z,5.85
2022-12-25T20:42:54.157Z,4.63
2022-12-25T20:45:20.813Z,6.38
2022-12-25T20:47:47.556Z,4.47
2022-12-25T20:50:14.140Z,4.10
2022-12-25T20:52:40.607Z,4.68
2022-12-25T20:55:07.300Z,4.93
2022-12-25T20:57:33.801Z,5.43
2022-12-25T21:00:00.562Z,11.30
2022-12-25T21:02:34.689Z,5.88
2022-12-25T21:05:03.168Z,5.10
2022-12-25T21:07:29.721Z,4.13
2022-12-25T21:09:56.251Z,3.88
2022-12-25T21:12:22.756Z,4.13
2022-12-25T21:14:49.226Z,5.47
2022-12-25T21:17:15.772Z,4.30
2022-12-25T21:19:42.459Z,7.38
2022-12-25T21:22:09.222Z,4.13
2022-12-25T21:24:35.883Z,11.90
2022-12-25T21:27:02.370Z,11.80
2022-12-25T21:29:28.887Z,7.68
2022-12-25T21:32:13.933Z,6.57
2022-12-25T21:34:40.559Z,4.93
2022-12-25T21:37:07.072Z,4.13
2022-12-25T21:39:33.512Z,3.95
2022-12-25T21:42:00.296Z,3.70
2022-12-25T21:44:26.835Z,4.07
2022-12-25T21:46:53.364Z,3.60
2022-12-25T21:49:39.012Z,3.80
2022-12-25T21:52:08.427Z,3.35
2022-12-25T21:54:35.538Z,3.38
2022-12-25T21:57:02.070Z,3.67
2022-12-25T21:59:28.545Z,3.28
2022-12-25T22:01:55.162Z,3.10
2022-12-25T22:04:22.955Z,3.25
2022-12-25T22:07:12.594Z,2.90
2022-12-25T22:09:39.263Z,3.25
2022-12-25T22:12:30.170Z,3.10
2022-12-25T22:15:06.515Z,2.90
2022-12-25T22:17:55.481Z,2.60
2022-12-25T22:20:34.742Z,3.47
2022-12-25T22:23:01.973Z,3.40
2022-12-25T22:25:28.498Z,3.65
2022-12-25T22:27:55.202Z,3.30
2022-12-25T22:30:28.149Z,3.30
2022-12-25T22:32:55.515Z,3.42
2022-12-25T22:35:22.235Z,3.42
2022-12-25T22:37:49.567Z,3.10
2022-12-25T22:40:17.933Z,3.80
2022-12-25T22:42:44.515Z,3.63
2022-12-25T22:45:12.017Z,3.00
2022-12-25T22:47:38.545Z,3.60
2022-12-25T22:50:05.475Z,3.22
2022-12-25T22:52:32.014Z,3.42
2022-12-25T22:54:58.565Z,3.13
2022-12-25T22:57:25.282Z,2.70
2022-12-25T22:59:53.017Z,3.13
2022-12-25T23:02:19.918Z,2.60
2022-12-25T23:04:46.581Z,3.38
2022-12-25T23:07:14.564Z,2.80
2022-12-25T23:09:42.135Z,2.70
2022-12-25T23:12:29.532Z,2.40
2022-12-25T23:14:56.902Z,2.85
2022-12-25T23:17:42.223Z,2.42
2022-12-25T23:20:28.044Z,2.50
2022-12-25T23:23:12.894Z,2.00
2022-12-25T23:25:58.009Z,2.35
2022-12-25T23:28:42.757Z,2.35
2022-12-25T23:31:09.425Z,2.37
2022-12-25T23:33:36.055Z,1.80
2022-12-25T23:36:02.588Z,1.90
2022-12-25T23:38:29.060Z,2.25
2022-12-25T23:40:55.689Z,2.10
2022-12-25T23:43:22.239Z,1.90
2022-12-25T23:45:48.907Z,1.90
2022-12-25T23:48:15.590Z,1.70
2022-12-25T23:50:42.071Z,1.67
2022-12-25T23:53:10.026Z,2.15
2022-12-25T23:55:36.647Z,1.80
2022-12-25T23:58:03.144Z,1.92
